Marietta, North Carolina
Current Conditions -  °F | °C
As of 7:54 PM on Saturday 20 Dec 2014 (Local Time) from KLBT Reporting Station
Haze Haze  
Wind Chill: 37°   Ceiling: 7000
Heat Index: 41°   Visibility: 5mi
Dew Point: 38°   Wind: 6mph
Humidity: 89%   Direction: 60°ENE
Pressure: 30.27"   Gusts: NA
Location:  34.37°N, 79.12°W
Report Text: KLBT 210054Z AUTO 06005KT 5SM BR FEW008 OVC070 05/03 A3027 RMK AO2 SLP249 T00500033
Loading
Personal Weather Stations






























Interactive Weather Map New forecast layout! Learn more

10-Day Weather Forecast

Advertisements
Track Severe Weather on mobile